South Bend, IN

7:56 AM EDT on September 19, 2014 (GMT -0400)
La Porte Municipal | Change Station
CLOSE
Current Station
Airport
Location: La Porte,
Elevation: 810 ft
Nearby Weather Stations

Elev 810 ft 41.57 °N, 86.73 °W | Updated 21 minutes ago

Clear
Clear
46 °F
Feels Like 43 °F
N
6
Wind Variable Wind from East

Today
High -- | Low -- °F
--% Chance of Precip.
Yesterday
High -- | Low -- °F
Precip. -- in
7:29 AM 7:47 PM
Waning Crescent, 19% visible
Pressure 30.21 in
Visibility 1.2 miles
Clouds
Windchill 43 °F
Dew Point 46 °F
Humidity 100%
Rainfall 0.00 in
Snow Depth Not available.
UV Not available.
Pollen 6.20 out of 12
Ozone Good
PM2.5 Moderate
Flu Activity Not available.
METAR KPPO 191135Z AUTO 10005KT 1 1/4SM BR VV007 08/08 A3021 RMK AO2 T00780078

More Conditions Fewer Conditions

Pressure 30.21 in
Visibility 1.2 miles
Clouds
Windchill 43 °F
Dew Point 46 °F
Humidity 100%
Rainfall 0.00 in
Snow Depth Not available.
UV Not available.
Pollen 6.20 out of 12
Ozone Good
PM2.5 Moderate
Flu Activity Not available.
METAR KPPO 191135Z AUTO 10005KT 1 1/4SM BR VV007 08/08 A3021 RMK AO2 T00780078

More Conditions Fewer Conditions

10-Day Weather Forecast

Almanac

Astronomy

Sep. 19, 2014 Rise Set
Actual Time 7:29 AM EDT 7:47 PM EDT
Civil Twilight 7:01 AM EDT 8:15 PM EDT
Nautical Twilight 6:28 AM EDT 8:47 PM EDT
Astronomical Twilight 5:55 AM EDT 9:21 PM EDT
Moon 3:11 AM EDT 5:18 PM EDT
Length of Visible Light 13h 13m
Length of Day
12h 18m
Tomorrow will be 2m 45s shorter.
Waning Crescent, 19% of the Moon is Illuminated
Today
Waning Crescent
Sep 24
New
Oct 1
First Quarter
Oct 8
Full
Oct 15
Last Quarter

Today's Extremes

State Highs State Lows

Community

WunderPhotos

Upload Photos

1,754,597 photos uploaded!

Nearby

Air Quality

  Air Quality AQ Index Pollutant
Yesterday Good
PM2.5
Yesterday Good
OZONE
Current Moderate
PM2.5
Current Good
OZONE
Friday Moderate
PM2.5
Friday Good
OZONE
Saturday Moderate
PM2.5
Saturday Good
OZONE
Sunday Good
OZONE
Sunday Good
PM2.5
Monday Good
OZONE
Monday Good
PM2.5

Snow Depth

Station Depth Elevation
No new snow has been reported.

Earthquake Activity

City Distance Mag. Time & Date
No recent earthquake activity has been reported nearby.
Minimum magnitude displayed is 2.5.

Coastal Water Temperatures

Place Temperature
Holland, MI 61.0 °F

Nearby Weather Stations